Flight Track Log - Related Links

Times and Time Zones

All times are in EDT time to prevent confusion due to time zone crossing. See the N762NC flight status page for this flight to view local times or setup timezone preferences in your user account.

Time Position Orientation Groundspeed Altitude Reporting Facility
EDT Latitude Longitude Course Direction KTS MPH feet Rate Location/Type
Tue 01:48:30 PM 30.5608 -86.3906 344° North 288 331 9,300  Level Jacksonville Center
Tue 01:49:30 PM 30.6322 -86.4558 322° Northwest 300 345 10,700 2,100 Climbing Jacksonville Center
Tue 01:50:00 PM 30.5784 -86.5724 337° Northwest  Level FlightAware Approximate
Tue 01:50:30 PM 30.7031 -86.5333 317° Northwest 320 368 13,500  Level Jacksonville Center
Tue 01:51:00 PM 30.6602 -86.5968 337° Northwest  Level FlightAware Approximate
Tue 01:51:30 PM 30.7825 -86.6042 323° Northwest 349 402 15,500  Level Jacksonville Center
Tue 01:52:00 PM 30.7530 -86.6454 344° North  Level FlightAware Approximate
Tue 01:52:30 PM 30.8742 -86.6078 358° North 318 366 17,700  Level Jacksonville Center
Tue 01:53:30 PM 30.9678 -86.5461 29° Northeast 319 367 19,300 1,250 Climbing Jacksonville Center
Tue 01:54:30 PM 31.0628 -86.5133 16° North 361 415 20,200 1,350 Climbing Jacksonville Center
Tue 01:55:30 PM 31.1747 -86.4642 21° North 395 455 22,000 1,519 Climbing Jacksonville Center
Tue 01:57:12 PM 31.3617 -86.3686 24° Northeast 451 519 24,300 1,304 Climbing Atlanta Center
Tue 01:58:11 PM 31.4733 -86.3008 27° Northeast 437 503 25,500 1,210 Climbing Atlanta Center
Tue 01:59:11 PM 31.5814 -86.2231 32° Northeast 442 509 26,700 694 Climbing Atlanta Center
Tue 02:00:12 PM 31.7061 -86.1283 33° Northeast 456 525 26,900 -99 Climbing Atlanta Center
Tue 02:01:12 PM 31.8317 -86.0972 12° North 470 541 26,500 -555 Descending Atlanta Center
Tue 02:02:11 PM 31.9528 -86.0925 North 450 518 25,800 -800 Descending Atlanta Center
Tue 02:03:12 PM 32.0644 -86.0436 20° North 433 498 24,900 -694 Descending Atlanta Center
Tue 02:04:12 PM 32.1614 -85.9819 28° Northeast 412 474 24,400 -450 Descending Atlanta Center
Tue 02:05:12 PM 32.2519 -85.9200 30° Northeast 389 448 24,000 -1,100 Descending Atlanta Center
Tue 02:06:12 PM 32.3406 -85.8581 31° Northeast 370 426 22,200 -1,815 Descending Atlanta Center
Tue 02:07:11 PM 32.4208 -85.7933 34° Northeast 359 413 20,400 -1,613 Descending Atlanta Center
Tue 02:08:11 PM 32.4972 -85.7136 41° Northeast 354 407 19,000 -700 Descending Atlanta Center
Tue 02:09:11 PM 32.5811 -85.6708 23° Northeast 330 380 19,000  Level Atlanta Center
Tue 02:10:11 PM 32.6733 -85.6428 14° North 330 380 19,000  Level Atlanta Center
Tue 02:11:11 PM 32.7475 -85.5675 40° Northeast 330 380 19,000  Level Atlanta Center
Tue 02:12:11 PM 32.8214 -85.4897 41° Northeast 341 392 19,000 -700 Level Atlanta Center
Tue 02:13:11 PM 32.8931 -85.4192 40° Northeast 341 392 17,600 -1,600 Descending Atlanta Center
Tue 02:14:11 PM 32.9589 -85.3361 47° Northeast 341 392 15,800 -1,800 Descending Atlanta Center
Tue 02:15:11 PM 33.0222 -85.2578 46° Northeast 329 379 14,000 -1,650 Descending Atlanta Center
Tue 02:16:11 PM 33.0728 -85.1939 47° Northeast 307 353 12,500 -1,000 Descending Atlanta Center
Tue 02:17:11 PM 33.1278 -85.1128 51° Northeast 300 345 12,000 -248 Descending Atlanta Center
Tue 02:18:12 PM 33.1828 -85.0367 49° Northeast 300 345 12,000 -650 Level Atlanta Center
Tue 02:19:11 PM 33.2417 -84.9703 43° Northeast 295 339 10,700 -1,765 Descending Atlanta Center
Tue 02:20:11 PM 33.2967 -84.9011 46° Northeast 290 334 8,500 -2,083 Descending Atlanta Center
Tue 02:21:12 PM 33.3617 -84.8347 40° Northeast 278 320 6,500 -1,785 Descending Atlanta Center
Tue 02:22:12 PM 33.4303 -84.8628 341° North 233 268 4,900 -1,300 Descending Atlanta Center
Tue 02:23:12 PM 33.5033 -84.8858 345° North 245 282 3,900 -454 Descending Atlanta Center
Tue 02:24:11 PM 33.5681 -84.8692 12° North 238 274 4,000 50 Climbing Atlanta Center
Tue 02:25:12 PM 33.6122 -84.8194 43° Northeast 220 253 4,000  Level Atlanta Center
Tue 02:26:12 PM 33.6211 -84.7497 81° East 191 220 4,000 -207 Level Atlanta Center
Tue 02:28:35 PM 33.6167 -84.6000 92° East 198 228 3,300 -502 Descending Atlanta TRACON
Tue 02:29:35 PM 33.6167 -84.5333 90° East 180 207 2,300 -850 Descending Atlanta TRACON
Tue 02:30:35 PM 33.6167 -84.4833 90° East 133 153 1,600 -700 Descending Atlanta TRACON
Tue 02:32:00 PM 33.6367 -84.4279 40° Northeast  Level Estimated

Login

Don't have an account? Register now (free) for customized features, flight alerts, and more!